Wind From: 11-12-2017 12:03 Until: 12-12-2017 06:00 warning for: Wind Level: Orange info button

Power and phone distribution networks may be disrupted for relatively long periods., Roofs and chimneys can be damaged. , Tree branches may break. , Vehicles can be deported. , Traffic may be disrupted, particularly on secondary roads in forest areas. Limit your trips. , Limit your speed in highway driving, especially if you drive a vehicle or hitch sensitive to wind. , Do not go for walks in forests or along the coast., In town, be vigilant against possible falling objects., Do not work on roofs and do not touch any electrical line fallen on the ground., Store or secure sensitive objects to wind or likely to be damaged., Always install power generators outside buildings. 


Meteo18 Weather Cam more information Meteo18 Weather Cam


Thunder radar more information blitzortung!


Rain radar more information rain snow radar


Visit our other weather sites:

Template documentation
and downloads

And another site



Weather Underground History page Text

Daily Summary for July 29, 2017 Units:  Metric    English   Both
« Previous Day
Next Day »
Daily Weekly Monthly Yearly Custom
  High: Low: Average:
Temperature: 30.2 °C 13.6 °C 21.3 °C
Dew Point: 17.2 °C 12.3 °C 14.3 °C
Humidity: 93 % 40 % 68 %
Wind Speed: 22.5 km/h 0.0 km/h 5.1 km/h
Wind Gust: 32.2 km/h - -
Wind:- - SW
Pressure: 1018.5 hPa 1012.4 hPa -
Precipitation: 0.0 mm    
Historical Graphs
 
 
Tabular Data for July 29, 2017
Time Temperature Dew Point Pressure Wind Wind Speed Wind Gust Humidity Rainfall Rate (Hourly)
00:02 16.7 °C 13.4 °C 1017.8 hPa SSW 1.6 km/h 3.2 km/h 81 % 0.0 mm
00:12 16.8 °C 13.3 °C 1017.8 hPa SSW 3.2 km/h 3.2 km/h 80 % 0.0 mm
00:17 16.9 °C 13.4 °C 1017.8 hPa SW 4.8 km/h 4.8 km/h 80 % 0.0 mm
00:22 17.2 °C 13.5 °C 1017.8 hPa SW 4.8 km/h 4.8 km/h 79 % 0.0 mm
00:32 17.6 °C 13.5 °C 1017.8 hPa SW 4.8 km/h 6.4 km/h 77 % 0.0 mm
00:42 17.6 °C 13.5 °C 1017.8 hPa SSW 1.6 km/h 8.0 km/h 77 % 0.0 mm
00:47 17.6 °C 13.5 °C 1017.8 hPa SW 3.2 km/h 8.0 km/h 77 % 0.0 mm
00:52 17.6 °C 13.5 °C 1017.8 hPa Calm   8.0 km/h 77 % 0.0 mm
01:02 17.2 °C 13.3 °C 1017.8 hPa West 3.2 km/h 6.4 km/h 78 % 0.0 mm
01:12 17.3 °C 13.4 °C 1017.8 hPa WSW 1.6 km/h 6.4 km/h 78 % 0.0 mm
01:22 17.3 °C 13.4 °C 1017.8 hPa SW 3.2 km/h 8.0 km/h 78 % 0.0 mm
01:32 17.3 °C 13.6 °C 1017.8 hPa SW 4.8 km/h 8.0 km/h 79 % 0.0 mm
01:42 17.2 °C 13.5 °C 1017.8 hPa Calm   8.0 km/h 79 % 0.0 mm
01:47 17.0 °C 13.3 °C 1017.8 hPa Calm   8.0 km/h 79 % 0.0 mm
01:52 16.7 °C 13.2 °C 1017.8 hPa Calm   6.4 km/h 80 % 0.0 mm
01:57 16.3 °C 13.0 °C 1017.8 hPa Calm   4.8 km/h 81 % 0.0 mm
02:02 15.9 °C 12.8 °C 1017.8 hPa Calm   3.2 km/h 82 % 0.0 mm
02:12 15.4 °C 12.7 °C 1017.8 hPa Calm   1.6 km/h 84 % 0.0 mm
02:17 15.3 °C 12.8 °C 1017.8 hPa Calm   1.6 km/h 85 % 0.0 mm
02:22 15.2 °C 12.7 °C 1017.8 hPa Calm   1.6 km/h 85 % 0.0 mm
02:32 15.0 °C 12.7 °C 1017.8 hPa Calm     86 % 0.0 mm
02:42 14.9 °C 12.8 °C 1017.8 hPa Calm   1.6 km/h 87 % 0.0 mm
02:47 14.9 °C 12.8 °C 1017.5 hPa Calm   1.6 km/h 87 % 0.0 mm
02:52 14.8 °C 12.7 °C 1017.8 hPa Calm   1.6 km/h 87 % 0.0 mm
02:57 14.6 °C 12.5 °C 1017.8 hPa Calm   1.6 km/h 87 % 0.0 mm
03:02 14.4 °C 12.4 °C 1017.8 hPa Calm   1.6 km/h 88 % 0.0 mm
03:12 14.4 °C 12.6 °C 1017.8 hPa Calm     89 % 0.0 mm
03:17 14.6 °C 12.8 °C 1017.8 hPa Calm     89 % 0.0 mm
03:22 14.7 °C 12.9 °C 1017.8 hPa Calm     89 % 0.0 mm
03:32 14.6 °C 12.6 °C 1017.8 hPa Calm     88 % 0.0 mm
03:37 14.5 °C 12.5 °C 1017.8 hPa Calm     88 % 0.0 mm
03:42 14.4 °C 12.6 °C 1017.5 hPa Calm     89 % 0.0 mm
03:47 14.3 °C 12.5 °C 1017.5 hPa Calm     89 % 0.0 mm
03:52 14.3 °C 12.5 °C 1017.5 hPa Calm     89 % 0.0 mm
03:57 14.2 °C 12.4 °C 1017.5 hPa Calm     89 % 0.0 mm
04:02 14.2 °C 12.6 °C 1017.8 hPa Calm     90 % 0.0 mm
04:12 14.1 °C 12.5 °C 1017.5 hPa SSE 1.6 km/h   90 % 0.0 mm
04:17 14.1 °C 12.5 °C 1017.5 hPa Calm     90 % 0.0 mm
04:22 14.1 °C 12.5 °C 1017.5 hPa Calm   1.6 km/h 90 % 0.0 mm
04:27 14.1 °C 12.5 °C 1017.5 hPa SSE 1.6 km/h 3.2 km/h 90 % 0.0 mm
04:32 14.1 °C 12.5 °C 1017.5 hPa SE 1.6 km/h 3.2 km/h 90 % 0.0 mm
04:37 14.1 °C 12.5 °C 1017.5 hPa SE 1.6 km/h 3.2 km/h 90 % 0.0 mm
04:42 14.0 °C 12.6 °C 1017.5 hPa Calm   3.2 km/h 91 % 0.0 mm
04:47 14.0 °C 12.6 °C 1017.5 hPa Calm   3.2 km/h 91 % 0.0 mm
04:52 14.1 °C 12.7 °C 1017.8 hPa Calm   3.2 km/h 91 % 0.0 mm
04:57 14.1 °C 12.7 °C 1017.8 hPa SE 1.6 km/h 3.2 km/h 91 % 0.0 mm
05:02 14.1 °C 12.7 °C 1017.8 hPa SSE 1.6 km/h 3.2 km/h 91 % 0.0 mm
05:12 14.0 °C 12.6 °C 1017.8 hPa Calm   3.2 km/h 91 % 0.0 mm
05:17 14.0 °C 12.6 °C 1017.8 hPa Calm   3.2 km/h 91 % 0.0 mm
05:22 13.9 °C 12.5 °C 1017.8 hPa Calm   1.6 km/h 91 % 0.0 mm
05:32 13.9 °C 12.5 °C 1017.8 hPa Calm   1.6 km/h 91 % 0.0 mm
05:42 13.9 °C 12.5 °C 1017.8 hPa Calm   3.2 km/h 91 % 0.0 mm
05:47 13.8 °C 12.4 °C 1017.8 hPa Calm   3.2 km/h 91 % 0.0 mm
05:52 13.7 °C 12.4 °C 1017.8 hPa Calm   3.2 km/h 92 % 0.0 mm
05:57 13.7 °C 12.4 °C 1017.8 hPa Calm   3.2 km/h 92 % 0.0 mm
06:02 13.7 °C 12.4 °C 1017.8 hPa Calm   3.2 km/h 92 % 0.0 mm
06:12 13.7 °C 12.4 °C 1017.8 hPa Calm   1.6 km/h 92 % 0.0 mm
06:17 13.6 °C 12.3 °C 1017.8 hPa Calm   1.6 km/h 92 % 0.0 mm
06:22 13.6 °C 12.3 °C 1017.8 hPa Calm     92 % 0.0 mm
06:32 13.6 °C 12.5 °C 1017.8 hPa SSE 1.6 km/h   93 % 0.0 mm
06:37 13.7 °C 12.6 °C 1017.8 hPa Calm     93 % 0.0 mm
06:42 13.7 °C 12.6 °C 1018.2 hPa Calm   4.8 km/h 93 % 0.0 mm
06:47 13.7 °C 12.6 °C 1018.2 hPa SE 1.6 km/h 4.8 km/h 93 % 0.0 mm
06:52 13.8 °C 12.7 °C 1018.2 hPa SE 1.6 km/h 3.2 km/h 93 % 0.0 mm
07:02 14.1 °C 13.0 °C 1018.2 hPa SSE 1.6 km/h 3.2 km/h 93 % 0.0 mm
07:07 14.1 °C 13.0 °C 1018.2 hPa Calm   3.2 km/h 93 % 0.0 mm
07:12 14.2 °C 13.1 °C 1018.2 hPa SSE 1.6 km/h 4.8 km/h 93 % 0.0 mm
07:17 14.3 °C 13.2 °C 1018.2 hPa SSW 1.6 km/h 4.8 km/h 93 % 0.0 mm
07:22 14.3 °C 13.0 °C 1018.2 hPa SSW 1.6 km/h 3.2 km/h 92 % 0.0 mm
07:32 14.4 °C 13.1 °C 1018.5 hPa SSW 3.2 km/h 4.8 km/h 92 % 0.0 mm
07:42 14.4 °C 13.1 °C 1018.5 hPa SSW 3.2 km/h 4.8 km/h 92 % 0.0 mm
07:47 14.6 °C 13.3 °C 1018.2 hPa South 3.2 km/h 4.8 km/h 92 % 0.0 mm
07:52 14.6 °C 13.3 °C 1018.2 hPa SE 1.6 km/h 4.8 km/h 92 % 0.0 mm
08:02 14.8 °C 13.5 °C 1018.2 hPa SSW 1.6 km/h 4.8 km/h 92 % 0.0 mm
08:12 14.9 °C 13.6 °C 1018.2 hPa Calm   4.8 km/h 92 % 0.0 mm
08:17 15.0 °C 13.5 °C 1018.2 hPa SSW 1.6 km/h 4.8 km/h 91 % 0.0 mm
08:27 15.2 °C 13.9 °C 1018.2 hPa Calm   3.2 km/h 92 % 0.0 mm
08:32 15.3 °C 14.0 °C 1018.2 hPa Calm   3.2 km/h 92 % 0.0 mm
08:37 15.4 °C 13.9 °C 1018.5 hPa Calm   3.2 km/h 91 % 0.0 mm
08:42 15.6 °C 14.3 °C 1018.5 hPa Calm   3.2 km/h 92 % 0.0 mm
08:52 15.9 °C 14.4 °C 1018.5 hPa SSW 3.2 km/h 9.7 km/h 91 % 0.0 mm
09:02 16.4 °C 14.6 °C 1018.2 hPa SSW 6.4 km/h 9.7 km/h 89 % 0.0 mm
09:12 16.8 °C 14.8 °C 1018.5 hPa SW 3.2 km/h 11.3 km/h 88 % 0.0 mm
09:17 17.1 °C 14.9 °C 1018.5 hPa SSW 4.8 km/h 11.3 km/h 87 % 0.0 mm
09:22 17.3 °C 14.9 °C 1018.5 hPa South 8.0 km/h 9.7 km/h 86 % 0.0 mm
09:32 17.5 °C 14.9 °C 1018.5 hPa SW 6.4 km/h 11.3 km/h 85 % 0.0 mm
09:42 18.2 °C 15.5 °C 1018.2 hPa SSW 4.8 km/h 9.7 km/h 84 % 0.0 mm
09:52 18.3 °C 15.4 °C 1018.2 hPa SSW 3.2 km/h 12.9 km/h 83 % 0.0 mm
09:57 18.3 °C 15.4 °C 1018.2 hPa SW 11.3 km/h 12.9 km/h 83 % 0.0 mm
10:02 18.3 °C 15.5 °C 1018.2 hPa SSW 6.4 km/h 12.9 km/h 84 % 0.0 mm
10:12 18.4 °C 15.5 °C 1018.2 hPa SW 6.4 km/h 12.9 km/h 83 % 0.0 mm
10:17 18.4 °C 15.3 °C 1018.2 hPa SW 6.4 km/h 12.9 km/h 82 % 0.0 mm
10:22 18.4 °C 15.3 °C 1018.2 hPa SW 4.8 km/h 14.5 km/h 82 % 0.0 mm
10:32 18.9 °C 15.6 °C 1018.2 hPa SW 11.3 km/h 19.3 km/h 81 % 0.0 mm
10:37 19.2 °C 15.7 °C 1018.2 hPa SSW 3.2 km/h 19.3 km/h 80 % 0.0 mm
10:42 19.6 °C 15.5 °C 1017.8 hPa SW 14.5 km/h 19.3 km/h 77 % 0.0 mm
10:47 19.6 °C 15.7 °C 1018.2 hPa SSW 17.7 km/h 19.3 km/h 78 % 0.0 mm
10:52 19.8 °C 15.7 °C 1017.8 hPa South 4.8 km/h 17.7 km/h 77 % 0.0 mm
11:02 20.2 °C 15.4 °C 1017.8 hPa WSW 8.0 km/h 17.7 km/h 74 % 0.0 mm
11:12 20.6 °C 15.4 °C 1017.8 hPa SSW 9.7 km/h 19.3 km/h 72 % 0.0 mm
11:17 20.8 °C 15.1 °C 1017.8 hPa SW 19.3 km/h 19.3 km/h 70 % 0.0 mm
11:22 20.8 °C 14.9 °C 1017.8 hPa WSW 6.4 km/h 19.3 km/h 69 % 0.0 mm
11:32 21.1 °C 14.5 °C 1017.8 hPa SSW 8.0 km/h 19.3 km/h 66 % 0.0 mm
11:42 21.4 °C 14.8 °C 1017.8 hPa South 6.4 km/h 16.1 km/h 66 % 0.0 mm
11:47 21.5 °C 14.6 °C 1017.5 hPa SSW 9.7 km/h 16.1 km/h 65 % 0.0 mm
11:52 21.6 °C 14.7 °C 1017.5 hPa SSW 9.7 km/h 17.7 km/h 65 % 0.0 mm
11:57 21.8 °C 14.7 °C 1017.5 hPa SW 9.7 km/h 17.7 km/h 64 % 0.0 mm
12:02 22.3 °C 15.2 °C 1017.5 hPa SSW 8.0 km/h 17.7 km/h 64 % 0.0 mm
12:12 22.3 °C 13.6 °C 1017.5 hPa SSW 11.3 km/h 14.5 km/h 58 % 0.0 mm
12:17 22.4 °C 14.0 °C 1017.5 hPa SW 4.8 km/h 14.5 km/h 59 % 0.0 mm
12:22 22.8 °C 14.1 °C 1017.5 hPa SW 4.8 km/h 16.1 km/h 58 % 0.0 mm
12:32 22.7 °C 13.7 °C 1017.5 hPa SW 3.2 km/h 16.1 km/h 57 % 0.0 mm
12:37 22.8 °C 14.1 °C 1017.2 hPa SW 4.8 km/h 16.1 km/h 58 % 0.0 mm
12:42 22.8 °C 13.6 °C 1017.5 hPa WSW 11.3 km/h 14.5 km/h 56 % 0.0 mm
12:47 22.9 °C 13.9 °C 1017.2 hPa SW 4.8 km/h 14.5 km/h 57 % 0.0 mm
12:52 22.9 °C 13.4 °C 1017.2 hPa SSW 8.0 km/h 14.5 km/h 55 % 0.0 mm
13:02 23.2 °C 13.9 °C 1017.2 hPa SW 8.0 km/h 19.3 km/h 56 % 0.0 mm
13:07 23.6 °C 14.3 °C 1017.2 hPa SSW 6.4 km/h 19.3 km/h 56 % 0.0 mm
13:17 23.8 °C 13.9 °C 1016.8 hPa SW 8.0 km/h 16.1 km/h 54 % 0.0 mm
13:22 24.0 °C 15.0 °C 1016.8 hPa SSW 9.7 km/h 20.9 km/h 57 % 0.0 mm
13:27 24.0 °C 14.4 °C 1016.8 hPa SW 4.8 km/h 20.9 km/h 55 % 0.0 mm
13:32 24.3 °C 15.2 °C 1016.8 hPa SW 9.7 km/h 20.9 km/h 57 % 0.0 mm
13:42 24.7 °C 14.2 °C 1016.5 hPa SSW 14.5 km/h 17.7 km/h 52 % 0.0 mm
13:52 25.1 °C 14.8 °C 1016.5 hPa SSW 3.2 km/h 20.9 km/h 53 % 0.0 mm
13:57 25.4 °C 14.8 °C 1016.5 hPa SSW 9.7 km/h 20.9 km/h 52 % 0.0 mm
14:02 25.5 °C 14.9 °C 1016.1 hPa South 8.0 km/h 14.5 km/h 52 % 0.0 mm
14:12 25.8 °C 14.9 °C 1016.1 hPa South 11.3 km/h 22.5 km/h 51 % 0.0 mm
14:17 25.7 °C 14.2 °C 1016.1 hPa SW 11.3 km/h 22.5 km/h 49 % 0.0 mm
14:27 26.0 °C 14.5 °C 1015.8 hPa South 4.8 km/h 20.9 km/h 49 % 0.0 mm
14:32 26.2 °C 15.0 °C 1015.5 hPa SW 11.3 km/h 20.9 km/h 50 % 0.0 mm
14:42 26.4 °C 14.8 °C 1015.5 hPa SSW 9.7 km/h 16.1 km/h 49 % 0.0 mm
14:47 26.4 °C 15.4 °C 1015.5 hPa SW 4.8 km/h 16.1 km/h 51 % 0.0 mm
14:57 27.6 °C 16.2 °C 1015.1 hPa ESE 1.6 km/h 14.5 km/h 50 % 0.0 mm
15:02 27.7 °C 16.0 °C 1015.1 hPa SSE 6.4 km/h 14.5 km/h 49 % 0.0 mm
15:12 28.0 °C 16.0 °C 1014.8 hPa SW 11.3 km/h 16.1 km/h 48 % 0.0 mm
15:17 27.8 °C 15.8 °C 1014.8 hPa SSW 4.8 km/h 16.1 km/h 48 % 0.0 mm
15:22 28.1 °C 16.1 °C 1014.8 hPa SSW 6.4 km/h 17.7 km/h 48 % 0.0 mm
15:27 28.4 °C 16.7 °C 1014.4 hPa SE 6.4 km/h 17.7 km/h 49 % 0.0 mm
15:37 28.4 °C 15.7 °C 1014.4 hPa SSW 8.0 km/h 14.5 km/h 46 % 0.0 mm
15:42 28.4 °C 16.3 °C 1014.4 hPa SSW 11.3 km/h 14.5 km/h 48 % 0.0 mm
15:47 28.2 °C 15.8 °C 1014.4 hPa Calm   17.7 km/h 47 % 0.0 mm
15:52 28.8 °C 16.0 °C 1014.4 hPa SW 4.8 km/h 17.7 km/h 46 % 0.0 mm
15:57 28.7 °C 16.3 °C 1014.4 hPa SSE 4.8 km/h 17.7 km/h 47 % 0.0 mm
16:02 28.9 °C 16.5 °C 1014.4 hPa SW 9.7 km/h 16.1 km/h 47 % 0.0 mm
16:12 28.5 °C 16.1 °C 1014.1 hPa SW 8.0 km/h 16.1 km/h 47 % 0.0 mm
16:17 28.5 °C 16.1 °C 1014.1 hPa SSW 4.8 km/h 19.3 km/h 47 % 0.0 mm
16:22 28.7 °C 16.3 °C 1014.1 hPa SSE 1.6 km/h 19.3 km/h 47 % 0.0 mm
16:32 28.6 °C 16.5 °C 1014.1 hPa WSW 9.7 km/h 14.5 km/h 48 % 0.0 mm
16:37 28.7 °C 15.9 °C 1014.1 hPa SSW 1.6 km/h 19.3 km/h 46 % 0.0 mm
16:42 28.9 °C 16.8 °C 1013.8 hPa SSW 8.0 km/h 19.3 km/h 48 % 0.0 mm
16:47 28.7 °C 15.9 °C 1013.8 hPa WSW 9.7 km/h 17.7 km/h 46 % 0.0 mm
16:52 28.9 °C 16.1 °C 1013.8 hPa WSW 8.0 km/h 20.9 km/h 46 % 0.0 mm
17:02 28.9 °C 16.1 °C 1013.8 hPa SW 6.4 km/h 20.9 km/h 46 % 0.0 mm
17:12 29.4 °C 16.2 °C 1013.4 hPa West 9.7 km/h 20.9 km/h 45 % 0.0 mm
17:17 29.5 °C 16.0 °C 1013.4 hPa SW 22.5 km/h 22.5 km/h 44 % 0.0 mm
17:22 29.4 °C 15.9 °C 1013.4 hPa SSW 9.7 km/h 19.3 km/h 44 % 0.0 mm
17:32 29.8 °C 15.9 °C 1013.1 hPa SSW 11.3 km/h 24.1 km/h 43 % 0.0 mm
17:42 29.9 °C 16.7 °C 1013.1 hPa SW 6.4 km/h 22.5 km/h 45 % 0.0 mm
17:47 30.1 °C 17.2 °C 1013.1 hPa SSW 9.7 km/h 20.9 km/h 46 % 0.0 mm
17:52 30.1 °C 16.1 °C 1013.1 hPa SW 17.7 km/h 20.9 km/h 43 % 0.0 mm
17:57 30.0 °C 15.3 °C 1013.1 hPa West 1.6 km/h 24.1 km/h 41 % 0.0 mm
18:02 30.1 °C 15.8 °C 1012.8 hPa SW 11.3 km/h 24.1 km/h 42 % 0.0 mm
18:07 30.2 °C 15.5 °C 1012.8 hPa WSW 11.3 km/h 24.1 km/h 41 % 0.0 mm
18:12 30.2 °C 16.2 °C 1012.8 hPa SSE 6.4 km/h 24.1 km/h 43 % 0.0 mm
18:17 30.2 °C 15.5 °C 1012.8 hPa WSW 11.3 km/h 27.4 km/h 41 % 0.0 mm
18:22 30.1 °C 15.4 °C 1012.8 hPa SSW 6.4 km/h 27.4 km/h 41 % 0.0 mm
18:32 30.1 °C 15.8 °C 1012.8 hPa SW 19.3 km/h 30.6 km/h 42 % 0.0 mm
18:42 29.8 °C 15.1 °C 1012.8 hPa WSW 11.3 km/h 32.2 km/h 41 % 0.0 mm
18:47 29.8 °C 15.5 °C 1012.4 hPa WSW 9.7 km/h 32.2 km/h 42 % 0.0 mm
18:52 29.7 °C 14.7 °C 1012.8 hPa SW 11.3 km/h 32.2 km/h 40 % 0.0 mm
19:02 29.6 °C 15.0 °C 1012.8 hPa SW 11.3 km/h 29.0 km/h 41 % 0.0 mm
19:12 29.4 °C 14.4 °C 1012.8 hPa WSW 6.4 km/h 29.0 km/h 40 % 0.0 mm
19:17 29.3 °C 14.3 °C 1012.4 hPa SW 14.5 km/h 29.0 km/h 40 % 0.0 mm
19:22 29.3 °C 14.7 °C 1012.4 hPa WSW 16.1 km/h 25.7 km/h 41 % 0.0 mm
19:32 29.2 °C 14.2 °C 1012.8 hPa SW 14.5 km/h 25.7 km/h 40 % 0.0 mm
19:42 29.1 °C 14.5 °C 1012.8 hPa WSW 12.9 km/h 25.7 km/h 41 % 0.0 mm
19:52 28.9 °C 14.7 °C 1012.8 hPa SW 8.0 km/h 24.1 km/h 42 % 0.0 mm
19:57 28.8 °C 14.6 °C 1012.8 hPa SSW 11.3 km/h 24.1 km/h 42 % 0.0 mm
20:02 28.7 °C 14.5 °C 1012.8 hPa WSW 12.9 km/h 24.1 km/h 42 % 0.0 mm
20:12 28.5 °C 14.3 °C 1012.8 hPa SW 11.3 km/h 22.5 km/h 42 % 0.0 mm
20:22 28.2 °C 14.4 °C 1012.8 hPa WSW 12.9 km/h 22.5 km/h 43 % 0.0 mm
20:32 27.8 °C 14.4 °C 1012.8 hPa West 4.8 km/h 22.5 km/h 44 % 0.0 mm
20:42 27.6 °C 14.6 °C 1012.8 hPa WSW 9.7 km/h 22.5 km/h 45 % 0.0 mm
20:47 27.4 °C 14.8 °C 1012.8 hPa SW 6.4 km/h 17.7 km/h 46 % 0.0 mm
20:52 27.2 °C 14.9 °C 1012.8 hPa SW 8.0 km/h 17.7 km/h 47 % 0.0 mm
20:57 27.0 °C 14.7 °C 1012.8 hPa West 3.2 km/h 17.7 km/h 47 % 0.0 mm
21:02 26.8 °C 14.9 °C 1012.8 hPa SW 8.0 km/h 16.1 km/h 48 % 0.0 mm
21:12 26.4 °C 14.8 °C 1012.8 hPa WSW 6.4 km/h 14.5 km/h 49 % 0.0 mm
21:17 26.3 °C 14.7 °C 1012.8 hPa SW 3.2 km/h 12.9 km/h 49 % 0.0 mm
21:22 26.1 °C 14.9 °C 1012.8 hPa WSW 9.7 km/h 12.9 km/h 50 % 0.0 mm
21:32 25.6 °C 15.0 °C 1012.8 hPa West 3.2 km/h 11.3 km/h 52 % 0.0 mm
21:42 25.0 °C 15.0 °C 1012.8 hPa Calm   11.3 km/h 54 % 0.0 mm
21:52 24.6 °C 15.0 °C 1012.8 hPa West 1.6 km/h 3.2 km/h 55 % 0.0 mm
21:57 24.4 °C 15.1 °C 1012.8 hPa WSW 3.2 km/h 3.2 km/h 56 % 0.0 mm
22:02 24.2 °C 15.1 °C 1012.8 hPa WSW 3.2 km/h 6.4 km/h 57 % 0.0 mm
22:12 23.9 °C 15.1 °C 1012.8 hPa West 3.2 km/h 6.4 km/h 58 % 0.0 mm
22:17 23.8 °C 15.0 °C 1013.1 hPa West 3.2 km/h 4.8 km/h 58 % 0.0 mm
22:22 23.8 °C 15.0 °C 1013.1 hPa SW 1.6 km/h 4.8 km/h 58 % 0.0 mm
22:27 23.7 °C 15.2 °C 1013.1 hPa WSW 4.8 km/h 6.4 km/h 59 % 0.0 mm
22:32 23.6 °C 15.1 °C 1013.1 hPa WSW 3.2 km/h 6.4 km/h 59 % 0.0 mm
22:42 23.4 °C 15.2 °C 1013.1 hPa West 3.2 km/h 6.4 km/h 60 % 0.0 mm
22:47 23.5 °C 15.3 °C 1013.1 hPa WSW 3.2 km/h 11.3 km/h 60 % 0.0 mm
22:52 23.5 °C 15.0 °C 1013.1 hPa WSW 6.4 km/h 11.3 km/h 59 % 0.0 mm
22:57 23.6 °C 15.1 °C 1013.1 hPa West 4.8 km/h 11.3 km/h 59 % 0.0 mm
23:02 23.6 °C 15.1 °C 1013.1 hPa WSW 4.8 km/h 9.7 km/h 59 % 0.0 mm
23:07 23.7 °C 15.2 °C 1013.1 hPa WSW 4.8 km/h 9.7 km/h 59 % 0.0 mm
23:12 23.6 °C 15.1 °C 1013.1 hPa WSW 4.8 km/h 9.7 km/h 59 % 0.0 mm
23:17 23.5 °C 15.0 °C 1013.1 hPa WSW 3.2 km/h 11.3 km/h 59 % 0.0 mm
23:22 23.4 °C 14.9 °C 1013.1 hPa SW 6.4 km/h 11.3 km/h 59 % 0.0 mm
23:32 23.2 °C 15.0 °C 1013.1 hPa SW 4.8 km/h 11.3 km/h 60 % 0.0 mm
23:37 23.1 °C 15.2 °C 1013.1 hPa SW 4.8 km/h 9.7 km/h 61 % 0.0 mm
23:42 22.9 °C 15.0 °C 1013.1 hPa SW 6.4 km/h 9.7 km/h 61 % 0.0 mm
23:47 22.7 °C 15.3 °C 1013.1 hPa SW 6.4 km/h 11.3 km/h 63 % 0.0 mm
23:52 22.5 °C 15.1 °C 1013.1 hPa SW 1.6 km/h 11.3 km/h 63 % 0.0 mm
23:57 22.2 °C 15.1 °C 1013.1 hPa SSW 1.6 km/h 11.3 km/h 64 % 0.0 mm
Meteo18
Compliments of Weather Underground - 4 mb

Script developed by  Jim McMurry - jmcmurry@mwt.net Adapted for the template by  Wim van der Kuil - Leuven-Template.eu

You find our weather info also at:

European Weather Network

Weather Underground

Equipment we use:

Weather-station
Davis Vue

Weather-program
Meteohub

Weather-server
Raspberry PI 2 B+

Provider
1 and 1

Davis Vue

Meteohub

Raspberry PI 2 B+

1 and 1